Time;durP1;ratioP1;P1;durP2;ratioP2;P2;SDS_P1;SDS_P2;PMS_P1;PMS_P2;Temp;Humidity;BMP_temperature;BMP_pressure;BME280_temperature;BME280_humidity;BME280_pressure;Samples;Min_cycle;Max_cycle;Signal;HPM_P1;HPM_P2
2023/01/25 00:00:10;;;;;;;52.60;24.02;;;;;;;3.06;96.73;102631.78;8292173;28;20034;-54
2023/01/25 00:04:10;;;;;;;48.83;23.85;;;;;;;3.07;96.94;102633.53;8282347;28;20120;-53
2023/01/25 00:08:11;;;;;;;49.22;23.73;;;;;;;3.04;97.07;102626.50;8290165;28;20088;-55
2023/01/25 00:12:11;;;;;;;59.63;28.85;;;;;;;3.04;97.50;102615.81;8294215;28;20129;-55
2023/01/25 00:16:12;;;;;;;61.92;28.80;;;;;;;3.03;97.18;102621.19;8294197;28;20045;-54
2023/01/25 00:20:12;;;;;;;54.40;25.65;;;;;;;3.01;97.82;102607.88;8293908;28;20354;-53
2023/01/25 00:24:13;;;;;;;51.00;24.55;;;;;;;3.01;98.20;102615.00;8293775;28;20499;-57
2023/01/25 00:28:13;;;;;;;44.38;22.23;;;;;;;3.00;97.77;102608.81;8293557;28;20052;-56
2023/01/25 00:40:43;;;;;;;44.63;20.80;;;;;;;2.95;98.21;102608.03;8314577;28;20908;-57
2023/01/25 00:44:45;;;;;;;48.20;23.92;;;;;;;2.87;98.33;102599.34;8316526;28;20526;-55
2023/01/25 00:48:46;;;;;;;43.92;20.92;;;;;;;2.91;98.28;102601.03;8316161;28;21178;-56
2023/01/25 00:52:46;;;;;;;44.65;21.42;;;;;;;2.92;98.20;102597.44;8311763;28;20414;-56
2023/01/25 00:56:47;;;;;;;56.08;27.77;;;;;;;2.86;98.72;102588.69;8307763;28;20038;-54
2023/01/25 01:00:48;;;;;;;50.90;24.23;;;;;;;2.87;98.52;102588.66;8315992;28;20526;-55
2023/01/25 01:04:49;;;;;;;49.75;24.27;;;;;;;2.86;98.51;102581.56;8314671;28;20402;-56
2023/01/25 01:08:49;;;;;;;54.05;24.45;;;;;;;2.87;98.45;102585.13;8316535;28;20060;-54
2023/01/25 01:12:50;;;;;;;45.63;23.50;;;;;;;2.88;98.50;102571.72;8315196;28;20045;-54
2023/01/25 01:16:50;;;;;;;51.53;24.92;;;;;;;2.88;99.00;102573.50;8315699;28;20040;-52
2023/01/25 01:20:52;;;;;;;56.70;25.30;;;;;;;2.85;99.64;102579.84;8315136;28;20087;-54
2023/01/25 01:24:55;;;;;;;57.92;26.17;;;;;;;2.80;99.54;102581.72;8315137;28;20065;-56
2023/01/25 01:28:57;;;;;;;61.55;27.75;;;;;;;2.85;99.92;102578.94;8310585;28;20518;-56
2023/01/25 01:32:57;;;;;;;56.35;26.08;;;;;;;2.86;99.93;102578.00;8311524;28;20129;-54
2023/01/25 01:36:58;;;;;;;51.75;24.10;;;;;;;2.83;99.94;102584.31;8314400;28;20126;-55
2023/01/25 01:40:58;;;;;;;55.25;27.02;;;;;;;2.80;100.00;102581.72;8314470;28;20152;-55
2023/01/25 01:44:59;;;;;;;63.30;28.98;;;;;;;2.81;100.00;102585.28;8302429;28;20804;-55
2023/01/25 01:49:05;;;;;;;48.85;23.40;;;;;;;2.75;100.00;102578.34;8277184;28;20129;-56
2023/01/25 01:53:06;;;;;;;53.63;23.38;;;;;;;2.76;99.84;102581.84;8260437;28;20043;-55
2023/01/25 01:57:13;;;;;;;49.72;23.77;;;;;;;2.81;100.00;102586.16;8284464;28;20044;-55
2023/01/25 02:01:14;;;;;;;55.15;25.60;;;;;;;2.81;100.00;102585.28;8292396;28;20034;-55
2023/01/25 02:05:24;;;;;;;52.95;25.05;;;;;;;2.80;100.00;102579.06;8292532;28;20053;-55
2023/01/25 02:09:28;;;;;;;60.75;25.02;;;;;;;2.79;100.00;102580.00;8292237;28;20117;-55
2023/01/25 02:13:30;;;;;;;59.47;26.17;;;;;;;2.77;100.00;102576.47;8291438;28;20049;-54
2023/01/25 02:17:34;;;;;;;59.85;27.27;;;;;;;2.76;100.00;102579.19;8292055;28;20048;-55
2023/01/25 02:21:42;;;;;;;56.92;26.05;;;;;;;2.77;100.00;102575.63;8292047;28;20457;-56
2023/01/25 02:25:43;;;;;;;63.22;26.42;;;;;;;2.76;100.00;102566.72;8278813;28;20125;-54
2023/01/25 02:29:44;;;;;;;61.97;25.35;;;;;;;2.76;100.00;102558.72;8260319;28;20038;-56
2023/01/25 02:33:44;;;;;;;51.70;23.00;;;;;;;2.76;100.00;102569.41;8269523;28;20038;-56
2023/01/25 02:37:45;;;;;;;50.95;22.80;;;;;;;2.76;100.00;102563.16;8265809;28;20043;-55
2023/01/25 02:41:46;;;;;;;50.60;23.83;;;;;;;2.74;100.00;102563.22;8264334;28;20042;-55
2023/01/25 02:45:55;;;;;;;51.67;24.48;;;;;;;2.74;100.00;102554.34;8291047;28;20531;-56
2023/01/25 02:49:56;;;;;;;58.67;27.58;;;;;;;2.78;100.00;102559.56;8290947;28;20049;-55
2023/01/25 02:53:57;;;;;;;63.42;29.73;;;;;;;2.73;100.00;102547.22;8290670;28;20045;-55
2023/01/25 02:57:57;;;;;;;61.80;27.35;;;;;;;2.76;100.00;102542.69;8290861;28;20046;-56
2023/01/25 03:01:58;;;;;;;55.75;25.13;;;;;;;2.76;100.00;102552.47;8289226;28;20570;-56
2023/01/25 03:05:58;;;;;;;52.42;24.88;;;;;;;2.73;100.00;102556.13;8280546;28;20050;-54
2023/01/25 03:09:59;;;;;;;57.63;26.10;;;;;;;2.73;100.00;102553.44;8304427;28;20068;-54
2023/01/25 03:14:00;;;;;;;56.40;24.23;;;;;;;2.71;100.00;102557.94;8290081;28;20046;-56
2023/01/25 03:18:02;;;;;;;57.75;26.02;;;;;;;2.70;100.00;102553.53;8290480;28;20100;-53
2023/01/25 03:22:05;;;;;;;54.22;26.50;;;;;;;2.71;100.00;102549.94;8287394;28;20041;-55
2023/01/25 03:26:12;;;;;;;60.30;26.70;;;;;;;2.70;100.00;102550.84;8272394;28;20125;-55
2023/01/25 03:30:24;;;;;;;58.58;26.10;;;;;;;2.67;100.00;102545.59;8286491;28;20095;-54
2023/01/25 03:34:25;;;;;;;52.70;24.33;;;;;;;2.72;100.00;102548.16;8288026;28;20041;-53
2023/01/25 03:38:27;;;;;;;63.72;26.45;;;;;;;2.71;100.00;102554.41;8289646;28;20045;-53
2023/01/25 03:42:27;;;;;;;59.28;28.48;;;;;;;2.69;100.00;102549.13;8286503;28;20045;-55
2023/01/25 03:46:31;;;;;;;57.05;25.42;;;;;;;2.72;100.00;102545.47;8303977;28;20045;-53
2023/01/25 03:50:32;;;;;;;61.92;26.02;;;;;;;2.64;100.00;102545.69;8288049;28;20286;-56
2023/01/25 03:54:32;;;;;;;60.65;26.27;;;;;;;2.66;100.00;102543.88;8294547;28;20470;-56
2023/01/25 03:58:35;;;;;;;60.13;26.52;;;;;;;2.66;100.00;102534.97;8288700;28;20038;-57
2023/01/25 04:02:36;;;;;;;52.65;25.75;;;;;;;2.62;100.00;102534.16;8288419;28;20065;-54
2023/01/25 04:06:37;;;;;;;63.15;26.30;;;;;;;2.66;100.00;102534.97;8288293;28;20041;-55
2023/01/25 04:10:38;;;;;;;57.78;27.08;;;;;;;2.64;100.00;102532.34;8287579;28;20061;-54
2023/01/25 04:14:40;;;;;;;64.50;27.05;;;;;;;2.65;100.00;102528.75;8271901;28;20068;-57
2023/01/25 04:18:40;;;;;;;63.15;26.85;;;;;;;2.66;100.00;102518.94;8263696;28;20046;-58
2023/01/25 04:22:41;;;;;;;54.05;23.88;;;;;;;2.66;100.00;102503.81;8255476;28;20054;-58
2023/01/25 04:26:42;;;;;;;54.85;24.58;;;;;;;2.67;100.00;102510.88;8276611;28;20116;-58
2023/01/25 04:30:43;;;;;;;56.25;25.75;;;;;;;2.54;100.00;102496.13;8286891;28;20046;-55
2023/01/25 04:34:44;;;;;;;56.00;26.23;;;;;;;2.63;100.00;102482.53;8287904;28;20037;-53
2023/01/25 04:38:50;;;;;;;57.15;24.73;;;;;;;2.63;100.00;102487.88;8287036;28;20495;-53
2023/01/25 04:42:50;;;;;;;56.17;26.35;;;;;;;2.58;100.00;102483.56;8285898;28;20061;-53
2023/01/25 04:46:51;;;;;;;58.38;26.58;;;;;;;2.57;100.00;102472.03;8287923;28;20446;-53
2023/01/25 04:50:52;;;;;;;57.20;25.63;;;;;;;2.54;100.00;102472.09;8287727;28;20042;-53
2023/01/25 04:54:55;;;;;;;60.95;26.67;;;;;;;2.52;100.00;102467.69;8287651;28;20510;-53
2023/01/25 04:58:56;;;;;;;63.58;27.27;;;;;;;2.61;100.00;102478.13;8287977;28;20502;-53
2023/01/25 05:02:56;;;;;;;54.00;24.55;;;;;;;2.60;100.00;102471.06;8277919;28;20654;-53
2023/01/25 05:06:57;;;;;;;55.88;25.58;;;;;;;2.52;100.00;102476.59;8274446;28;20050;-53
2023/01/25 05:10:59;;;;;;;59.38;24.98;;;;;;;2.51;100.00;102477.53;8286971;28;20502;-53
2023/01/25 05:15:08;;;;;;;52.55;23.08;;;;;;;2.55;100.00;102471.19;8254514;28;20084;-54
2023/01/25 05:19:09;;;;;;;57.90;24.08;;;;;;;2.53;100.00;102469.47;8279173;28;20042;-53
2023/01/25 05:23:18;;;;;;;53.20;23.95;;;;;;;2.51;100.00;102456.16;8279774;28;20451;-52
2023/01/25 05:27:20;;;;;;;53.63;24.33;;;;;;;2.52;100.00;102457.91;8281295;28;20042;-54
2023/01/25 05:31:40;;;;;;;56.50;23.80;;;;;;;2.45;100.00;102456.34;8270597;28;21585;-54
2023/01/25 05:35:42;;;;;;;55.85;24.83;;;;;;;2.43;100.00;102452.81;8259437;28;20041;-54
2023/01/25 05:39:42;;;;;;;55.58;23.90;;;;;;;2.43;100.00;102446.59;8267234;28;20038;-54
2023/01/25 05:43:46;;;;;;;60.88;25.83;;;;;;;2.37;100.00;102453.00;8276206;28;20046;-53
2023/01/25 05:47:56;;;;;;;72.68;27.67;;;;;;;2.31;100.00;102452.31;8282694;28;20030;-53
2023/01/25 05:51:57;;;;;;;65.25;27.02;;;;;;;2.35;100.00;102460.16;8285468;28;20050;-53
2023/01/25 05:56:04;;;;;;;70.93;28.10;;;;;;;2.32;100.00;102441.59;8268290;28;20038;-54
2023/01/25 06:00:07;;;;;;;61.42;23.92;;;;;;;2.29;100.00;102443.44;8267604;28;20034;-54
2023/01/25 06:04:17;;;;;;;65.47;25.13;;;;;;;2.21;100.00;102446.31;8277795;28;20408;-53
2023/01/25 06:08:19;;;;;;;67.53;26.05;;;;;;;2.21;100.00;102441.00;8289663;28;20038;-53
2023/01/25 06:12:23;;;;;;;;;;;;;;;2.16;100.00;102445.56;8288945;28;20044;-54
2023/01/25 06:16:23;;;;;;;65.22;26.23;;;;;;;2.18;100.00;102446.41;8291281;28;19921;-53
2023/01/25 06:20:44;;;;;;;60.38;23.63;;;;;;;2.12;100.00;102441.22;8282009;28;20061;-53
2023/01/25 06:24:44;;;;;;;66.07;24.00;;;;;;;2.15;100.00;102441.16;8279741;28;20042;-53
2023/01/25 06:28:45;;;;;;;61.17;24.92;;;;;;;2.16;100.00;102440.22;8291401;28;20176;-54
2023/01/25 06:32:45;;;;;;;61.17;24.77;;;;;;;2.13;100.00;102429.63;8285566;28;20037;-52
2023/01/25 06:36:47;;;;;;;63.10;26.02;;;;;;;2.20;100.00;102433.03;8266954;28;20041;-54
2023/01/25 06:40:47;;;;;;;59.88;25.33;;;;;;;2.14;100.00;102434.06;8288183;28;20088;-54
2023/01/25 06:44:48;;;;;;;52.53;24.13;;;;;;;2.27;100.00;102422.16;8286827;28;20050;-51
2023/01/25 06:48:48;;;;;;;63.53;25.92;;;;;;;2.30;100.00;102446.06;8291212;28;20403;-52
2023/01/25 06:52:52;;;;;;;70.25;25.65;;;;;;;2.19;100.00;102441.94;8288024;28;20045;-53
2023/01/25 06:56:52;;;;;;;73.88;26.90;;;;;;;2.21;100.00;102430.31;8289482;28;20046;-54
2023/01/25 07:00:53;;;;;;;69.97;27.52;;;;;;;2.18;100.00;102441.06;8281735;28;20030;-54
2023/01/25 07:04:53;;;;;;;75.10;25.98;;;;;;;2.10;100.00;102437.72;8285855;28;20121;-53
2023/01/25 07:08:54;;;;;;;81.45;30.27;;;;;;;2.10;100.00;102440.38;8290052;28;20030;-53
2023/01/25 07:12:54;;;;;;;75.90;27.77;;;;;;;2.02;100.00;102440.56;8280670;28;20127;-54
2023/01/25 07:16:55;;;;;;;77.60;29.55;;;;;;;1.98;100.00;102438.03;8281135;28;20038;-54
2023/01/25 07:21:05;;;;;;;82.57;26.73;;;;;;;1.95;100.00;102439.00;8279126;28;20066;-53
2023/01/25 07:25:06;;;;;;;78.22;28.75;;;;;;;1.99;100.00;102440.66;8291496;28;20049;-52
2023/01/25 07:29:10;;;;;;;72.45;26.40;;;;;;;1.96;100.00;102440.75;8288853;28;20045;-52
2023/01/25 07:33:10;;;;;;;72.82;27.08;;;;;;;1.95;100.00;102448.78;8284776;28;20041;-57
2023/01/25 07:37:11;;;;;;;80.45;28.45;;;;;;;1.90;100.00;102437.38;8271548;28;20046;-56
2023/01/25 07:41:11;;;;;;;69.68;27.08;;;;;;;2.04;100.00;102438.75;8266849;28;20046;-56
2023/01/25 07:45:12;;;;;;;74.43;26.77;;;;;;;1.93;100.00;102439.97;8273772;28;20487;-56
2023/01/25 07:49:12;;;;;;;76.95;27.52;;;;;;;2.02;100.00;102442.41;8289945;28;20379;-54
2023/01/25 07:53:13;;;;;;;68.55;27.08;;;;;;;2.03;100.00;102442.34;8274124;28;20073;-56
2023/01/25 07:57:14;;;;;;;78.22;28.25;;;;;;;1.97;100.00;102442.50;8288291;28;20069;-58
2023/01/25 08:01:17;;;;;;;81.35;31.45;;;;;;;2.11;100.00;102436.81;8280006;28;20042;-56
2023/01/25 08:05:18;;;;;;;83.47;32.05;;;;;;;2.11;100.00;102433.25;8288043;28;20380;-57
2023/01/25 08:09:19;;;;;;;88.88;30.90;;;;;;;2.05;100.00;102434.31;8287217;28;20387;-55
2023/01/25 08:13:19;;;;;;;76.88;29.75;;;;;;;2.20;100.00;102433.91;8281790;28;20177;-55
2023/01/25 08:17:20;;;;;;;81.53;30.00;;;;;;;2.19;100.00;102432.13;8287863;28;20334;-56
2023/01/25 08:21:27;;;;;;;89.55;29.73;;;;;;;2.13;100.00;102431.44;8286644;28;20407;-57
2023/01/25 08:25:28;;;;;;;87.10;30.33;;;;;;;2.02;100.00;102439.72;8247481;28;20049;-56
2023/01/25 08:29:28;;;;;;;87.25;30.88;;;;;;;2.09;100.00;102433.31;8255213;28;20075;-57
2023/01/25 08:33:29;;;;;;;94.70;30.17;;;;;;;2.16;100.00;102426.88;8254601;28;20061;-53
2023/01/25 08:37:29;;;;;;;85.35;30.20;;;;;;;2.10;100.00;102427.03;8256183;28;20061;-53
2023/01/25 08:41:32;;;;;;;86.70;30.95;;;;;;;2.20;100.00;102420.56;8283322;28;20042;-54
2023/01/25 08:45:35;;;;;;;87.80;31.35;;;;;;;2.18;100.00;102414.38;8303557;28;20041;-54
2023/01/25 08:49:37;;;;;;;94.53;31.83;;;;;;;2.15;100.00;102411.81;8288670;28;20050;-52
2023/01/25 08:53:37;;;;;;;93.90;32.03;;;;;;;2.17;100.00;102412.66;8285960;28;20042;-53
2023/01/25 08:57:38;;;;;;;90.35;33.70;;;;;;;2.21;100.00;102411.63;8285109;28;20042;-53
2023/01/25 09:01:39;;;;;;;96.53;33.67;;;;;;;2.18;100.00;102409.06;8291270;28;20049;-54
2023/01/25 09:05:39;;;;;;;96.22;32.80;;;;;;;2.17;100.00;102412.66;8293620;28;20451;-52
2023/01/25 09:09:40;;;;;;;110.72;34.92;;;;;;;2.11;100.00;102418.16;8293113;28;21541;-54
2023/01/25 09:13:42;;;;;;;100.25;33.38;;;;;;;2.12;100.00;102406.56;8286895;28;20053;-52
2023/01/25 09:17:43;;;;;;;89.65;30.73;;;;;;;2.06;100.00;102414.72;8267548;28;20042;-53
2023/01/25 09:21:43;;;;;;;94.03;31.55;;;;;;;2.11;100.00;102404.81;8270758;28;20042;-52
2023/01/25 09:25:43;;;;;;;93.32;30.55;;;;;;;2.15;100.00;102401.13;8275761;28;20112;-53
2023/01/25 09:29:44;;;;;;;92.28;33.30;;;;;;;2.16;100.00;102404.69;8292906;28;20042;-53
2023/01/25 09:33:45;;;;;;;99.50;32.13;;;;;;;2.11;100.00;102391.47;8274414;28;20030;-53
2023/01/25 09:37:49;;;;;;;83.68;31.00;;;;;;;2.16;100.00;102399.34;8284491;28;20495;-55
2023/01/25 09:46:24;;;;;;;94.57;32.28;;;;;;;2.16;100.00;102384.19;8413770;27;20963;-53
2023/01/25 09:50:37;;;;;;;96.95;31.73;;;;;;;2.02;100.00;102370.38;8412482;27;20037;-54
2023/01/25 09:54:42;;;;;;;88.90;30.13;;;;;;;2.09;100.00;102377.28;8393372;27;20032;-53
2023/01/25 09:58:47;;;;;;;96.20;31.58;;;;;;;2.17;100.00;102377.09;8398536;27;20568;-57
2023/01/25 10:03:27;;;;;;;91.85;31.70;;;;;;;2.18;100.00;102361.03;8394989;27;20478;-54
2023/01/25 10:07:53;;;;;;;100.93;31.98;;;;;;;2.23;100.00;102359.13;8413632;27;20071;-55
2023/01/25 10:11:54;;;;;;;108.85;36.30;;;;;;;2.23;100.00;102359.13;8421247;27;20141;-54
2023/01/25 10:16:01;;;;;;;113.38;40.35;;;;;;;2.22;100.00;102351.16;8414572;28;20032;-55
2023/01/25 10:20:27;;;;;;;110.95;34.85;;;;;;;2.06;100.00;102356.03;8415134;28;20029;-55
2023/01/25 10:24:58;;;;;;;95.13;32.60;;;;;;;2.12;100.00;102350.53;8413819;28;20059;-54
2023/01/25 10:29:14;;;;;;;102.18;34.33;;;;;;;2.10;100.00;102352.34;8407151;28;20047;-55
2023/01/25 10:33:18;;;;;;;93.90;33.25;;;;;;;2.18;100.00;102342.34;8403509;28;20047;-54
2023/01/25 10:37:23;;;;;;;85.03;30.23;;;;;;;2.21;100.00;102350.28;8410342;28;20063;-55
2023/01/25 10:41:42;;;;;;;86.80;28.42;;;;;;;2.13;100.00;102328.25;8403357;28;20060;-54
2023/01/25 10:45:43;;;;;;;80.65;30.67;;;;;;;2.19;100.00;102314.75;8411201;28;20098;-54
2023/01/25 10:49:53;;;;;;;82.60;29.30;;;;;;;2.22;100.00;102314.66;8389752;28;20051;-55
2023/01/25 10:54:04;;;;;;;96.03;30.80;;;;;;;2.14;100.00;102307.81;8399651;28;20620;-54
2023/01/25 10:58:33;;;;;;;92.70;31.17;;;;;;;2.00;100.00;102313.53;8381714;28;20036;-54
2023/01/25 11:02:42;;;;;;;88.97;30.05;;;;;;;1.91;100.00;102308.44;8389467;28;20452;-54
2023/01/25 11:06:48;;;;;;;94.38;33.47;;;;;;;1.97;100.00;102302.94;8391928;28;20075;-56
2023/01/25 11:10:49;;;;;;;106.75;33.10;;;;;;;2.02;100.00;102299.22;8391760;28;20098;-54
2023/01/25 11:14:50;;;;;;;93.75;32.97;;;;;;;2.12;100.00;102296.28;8390788;28;20122;-55
2023/01/25 11:18:53;;;;;;;95.85;31.20;;;;;;;1.87;100.00;102296.13;8391911;28;20119;-54
2023/01/25 11:22:55;;;;;;;99.82;33.55;;;;;;;1.98;100.00;102288.69;8388086;28;20047;-54
2023/01/25 11:27:19;;;;;;;105.75;33.05;;;;;;;2.03;100.00;102284.09;8388999;28;20043;-54
2023/01/25 11:31:21;;;;;;;88.10;30.23;;;;;;;1.95;100.00;102267.44;8390664;28;20040;-54
2023/01/25 11:35:30;;;;;;;90.97;30.08;;;;;;;2.08;100.00;102262.63;8390832;28;20036;-52
2023/01/25 11:39:58;;;;;;;89.45;28.52;;;;;;;2.10;100.00;102267.00;8388269;28;20043;-55
2023/01/25 11:44:39;;;;;;;98.88;30.92;;;;;;;2.07;100.00;102255.56;8389359;28;20064;-53
2023/01/25 11:49:16;;;;;;;94.38;30.98;;;;;;;2.05;100.00;102242.25;8372711;28;20041;-55
2023/01/25 11:53:44;;;;;;;91.15;30.15;;;;;;;2.20;100.00;102223.13;8376903;28;20565;-55
2023/01/25 12:02:29;;;;;;;80.40;28.63;;;;;;;2.08;100.00;102207.50;8455510;27;20400;-53
2023/01/25 12:06:55;;;;;;;80.20;28.48;;;;;;;2.11;100.00;102199.41;8451008;28;20051;-54
2023/01/25 12:11:05;;;;;;;87.43;31.88;;;;;;;2.15;100.00;102181.50;8427161;28;20340;-55
2023/01/25 12:15:31;;;;;;;82.90;27.65;;;;;;;2.21;100.00;102170.63;8450859;28;20036;-53
2023/01/25 12:24:32;;;;;;;76.60;27.20;;;;;;;2.14;100.00;102164.63;8317404;28;20984;-52
2023/01/25 12:28:42;;;;;;;90.03;28.77;;;;;;;1.98;100.00;102155.34;8317939;28;20041;-53
2023/01/25 12:32:50;;;;;;;88.20;28.38;;;;;;;1.95;100.00;102139.44;8272877;28;20487;-52
2023/01/25 12:36:50;;;;;;;78.10;28.40;;;;;;;2.00;100.00;102124.16;8284795;28;20038;-52
2023/01/25 12:45:13;;;;;;;71.30;26.58;;;;;;;1.87;100.00;102102.31;8322374;28;20413;-53
2023/01/25 12:49:22;;;;;;;87.03;29.17;;;;;;;1.90;100.00;102098.72;8317112;28;20038;-53
2023/01/25 12:53:26;;;;;;;77.82;28.15;;;;;;;1.93;100.00;102086.13;8341919;28;20111;-53
2023/01/25 12:57:56;;;;;;;89.80;28.70;;;;;;;1.98;100.00;102080.66;8296288;28;20070;-53
2023/01/25 13:02:23;;;;;;;79.15;24.92;;;;;;;1.96;100.00;102071.84;8287302;28;20049;-52
2023/01/25 13:06:40;;;;;;;75.80;25.42;;;;;;;1.88;100.00;102065.88;8276379;28;20496;-53
2023/01/25 13:10:47;;;;;;;77.88;25.80;;;;;;;1.74;100.00;102054.78;8284702;28;20178;-53
2023/01/25 13:14:47;;;;;;;79.22;24.80;;;;;;;1.82;100.00;102047.41;8313950;28;20157;-53
2023/01/25 13:18:48;;;;;;;84.60;27.55;;;;;;;1.83;100.00;102028.69;8316957;28;20542;-53
2023/01/25 13:27:22;;;;;;;87.38;27.35;;;;;;;1.81;100.00;102013.69;8453861;27;20541;-52
2023/01/25 13:35:54;;;;;;;77.32;25.20;;;;;;;1.76;100.00;102000.50;8471778;27;20338;-52
2023/01/25 13:39:57;;;;;;;67.75;21.38;;;;;;;1.85;100.00;101994.88;8442771;27;20115;-52
2023/01/25 13:44:17;;;;;;;73.45;23.55;;;;;;;1.97;100.00;101986.47;8448228;27;20380;-52
2023/01/25 13:48:21;;;;;;;74.65;23.02;;;;;;;1.83;100.00;101985.19;8447088;27;20028;-52
2023/01/25 13:52:23;;;;;;;67.10;22.60;;;;;;;1.92;100.00;101982.19;8443557;27;20493;-51
2023/01/25 13:56:28;;;;;;;67.15;21.25;;;;;;;1.81;100.00;101979.91;8447820;27;20067;-52
2023/01/25 14:00:28;;;;;;;;;;;;;;;1.72;100.00;101981.97;8447455;27;20069;-52
2023/01/25 14:04:30;;;;;;;62.08;20.58;;;;;;;1.79;100.00;101986.19;8447054;27;20396;-52
2023/01/25 14:08:31;;;;;;;66.38;22.80;;;;;;;1.87;100.00;101976.16;8447567;27;20059;-52
2023/01/25 14:12:41;;;;;;;69.28;24.40;;;;;;;1.94;100.00;101972.34;8447465;27;20051;-53
2023/01/25 14:16:42;;;;;;;105.05;33.90;;;;;;;1.82;100.00;101967.44;8446080;27;20114;-53
2023/01/25 14:20:44;;;;;;;78.97;25.00;;;;;;;1.85;100.00;101962.00;8447212;27;20153;-52
2023/01/25 14:24:59;;;;;;;78.15;26.40;;;;;;;1.90;100.00;101957.38;8437676;27;20036;-52
2023/01/25 14:28:59;;;;;;;69.45;23.83;;;;;;;1.85;100.00;101957.53;8411201;27;20066;-53
2023/01/25 14:33:02;;;;;;;70.55;23.67;;;;;;;1.81;100.00;101960.34;8412504;27;20200;-52
2023/01/25 14:37:13;;;;;;;64.97;21.35;;;;;;;1.81;100.00;101957.69;8413307;27;20052;-53
2023/01/25 14:41:26;;;;;;;55.60;18.30;;;;;;;1.79;100.00;101957.75;8413354;27;20036;-52
2023/01/25 14:45:27;;;;;;;60.45;18.42;;;;;;;1.63;100.00;101950.28;8425256;27;20256;-53
2023/01/25 14:49:27;;;;;;;56.50;19.77;;;;;;;1.69;100.00;101953.63;8400553;27;20039;-52
2023/01/25 14:53:28;;;;;;;51.38;20.13;;;;;;;1.68;100.00;101951.03;8423930;27;20532;-53
2023/01/25 14:57:35;;;;;;;57.78;20.98;;;;;;;1.67;100.00;101946.59;8422020;27;20529;-52
2023/01/25 15:01:38;;;;;;;55.50;19.10;;;;;;;1.72;100.00;101947.31;8423844;27;20028;-52
2023/01/25 15:05:45;;;;;;;62.40;21.03;;;;;;;1.72;100.00;101948.22;8423193;28;20044;-53
2023/01/25 15:10:00;;;;;;;61.38;22.60;;;;;;;1.75;100.00;101944.56;8423440;28;20349;-52
2023/01/25 15:14:06;;;;;;;52.38;18.52;;;;;;;1.58;100.00;101946.88;8422358;27;20047;-52
2023/01/25 15:22:56;;;;;;;51.67;17.70;;;;;;;1.37;100.00;101937.78;8314810;28;20395;-50
2023/01/25 15:26:56;;;;;;;60.95;22.50;;;;;;;1.29;100.00;101930.97;8279748;28;20053;-53
2023/01/25 15:30:58;;;;;;;52.75;18.95;;;;;;;1.36;100.00;101919.19;8272285;28;20037;-51
2023/01/25 15:34:58;;;;;;;54.33;19.23;;;;;;;1.28;100.00;101905.25;8281794;28;20042;-51
2023/01/25 15:38:59;;;;;;;57.67;20.58;;;;;;;1.31;100.00;101905.16;8279858;28;20127;-50
2023/01/25 15:42:59;;;;;;;50.67;20.70;;;;;;;1.31;100.00;101894.50;8281485;28;20041;-48
2023/01/25 15:47:00;;;;;;;56.28;20.42;;;;;;;1.33;100.00;101893.53;8279402;28;20035;-52
2023/01/25 15:51:01;;;;;;;63.95;23.00;;;;;;;1.45;100.00;101900.25;8314163;28;20251;-52
2023/01/25 15:55:01;;;;;;;53.78;18.73;;;;;;;1.32;100.00;101893.56;8303579;28;20096;-48
2023/01/25 15:59:06;;;;;;;48.30;18.17;;;;;;;1.28;100.00;101889.28;8268311;28;20510;-49
2023/01/25 16:03:07;;;;;;;48.70;18.95;;;;;;;1.05;100.00;101892.66;8271455;28;20155;-52
2023/01/25 16:07:20;;;;;;;55.95;19.75;;;;;;;1.13;100.00;101900.41;8280951;28;20153;-50
2023/01/25 16:11:20;;;;;;;50.90;18.67;;;;;;;1.04;100.00;101880.25;8281212;28;20088;-49
2023/01/25 16:15:20;;;;;;;58.15;20.60;;;;;;;1.12;100.00;101880.88;8273925;28;20089;-52
2023/01/25 16:19:22;;;;;;;50.20;18.45;;;;;;;1.12;100.00;101877.34;8280592;28;20038;-52
2023/01/25 16:23:24;;;;;;;55.00;20.88;;;;;;;1.22;100.00;101889.47;8281366;28;20129;-51
2023/01/25 16:27:25;;;;;;;57.33;20.92;;;;;;;1.27;100.00;101885.72;8277919;28;20046;-52
2023/01/25 16:31:26;;;;;;;52.80;18.38;;;;;;;1.07;100.00;101874.81;8273685;28;20529;-51
2023/01/25 16:35:26;;;;;;;46.83;17.88;;;;;;;0.89;100.00;101879.84;8258043;28;20432;-53
2023/01/25 16:39:27;;;;;;;48.75;19.23;;;;;;;0.91;100.00;101878.88;8258415;28;20046;-48
2023/01/25 16:43:27;;;;;;;46.22;19.27;;;;;;;1.04;100.00;101880.25;8257291;28;20047;-51
2023/01/25 16:47:27;;;;;;;59.17;23.08;;;;;;;1.08;100.00;101871.25;8258916;28;20045;-51
2023/01/25 16:51:28;;;;;;;58.35;21.85;;;;;;;0.99;100.00;101881.31;8264601;28;20048;-53
2023/01/25 16:55:28;;;;;;;46.92;18.75;;;;;;;0.97;100.00;101883.13;8240191;28;20517;-51
2023/01/25 16:59:29;;;;;;;44.42;16.65;;;;;;;0.73;100.00;101874.09;8260905;28;20043;-54
2023/01/25 17:03:30;;;;;;;50.42;17.25;;;;;;;0.66;100.00;101871.69;8258243;28;20053;-53
2023/01/25 17:07:30;;;;;;;64.65;24.13;;;;;;;0.80;100.00;101869.50;8259691;28;20117;-53
2023/01/25 17:11:31;;;;;;;53.50;18.27;;;;;;;0.76;100.00;101858.06;8259566;28;20042;-53
2023/01/25 17:15:33;;;;;;;64.30;21.35;;;;;;;0.81;100.00;101863.25;8251680;28;20043;-51
2023/01/25 17:19:33;;;;;;;53.95;19.90;;;;;;;0.89;100.00;101869.22;8244551;28;20466;-52
2023/01/25 17:23:35;;;;;;;66.70;21.92;;;;;;;0.89;100.00;101863.88;8240344;28;20042;-51
2023/01/25 17:27:35;;;;;;;66.80;21.35;;;;;;;0.99;100.00;101860.00;8240650;28;20045;-57
2023/01/25 17:31:36;;;;;;;58.03;20.30;;;;;;;0.87;100.00;101865.72;8251799;28;20491;-55
2023/01/25 17:35:37;;;;;;;59.08;19.50;;;;;;;0.92;100.00;101853.16;8259517;28;20463;-55
2023/01/25 17:39:37;;;;;;;58.95;20.17;;;;;;;0.83;100.00;101858.75;8258709;28;20395;-56
2023/01/25 17:43:38;;;;;;;72.25;23.20;;;;;;;0.89;100.00;101842.59;8257525;28;20034;-54
2023/01/25 17:47:38;;;;;;;75.82;25.25;;;;;;;0.98;100.00;101839.66;8258832;28;20046;-57
2023/01/25 17:51:39;;;;;;;69.32;22.70;;;;;;;0.93;100.00;101838.91;8253053;28;20030;-57
2023/01/25 17:55:39;;;;;;;68.50;22.38;;;;;;;1.11;100.00;101844.53;8258030;28;20030;-54
2023/01/25 17:59:40;;;;;;;70.50;22.83;;;;;;;1.07;100.00;101831.38;8238593;28;20034;-57
2023/01/25 18:03:42;;;;;;;70.15;21.40;;;;;;;1.02;100.00;101827.97;8243627;28;20051;-57
2023/01/25 18:07:43;;;;;;;65.10;21.35;;;;;;;0.89;100.00;101831.94;8248455;28;20046;-56
2023/01/25 18:11:43;;;;;;;71.93;21.15;;;;;;;0.95;100.00;101831.75;8241301;28;20045;-56
2023/01/25 18:15:52;;;;;;;72.13;21.95;;;;;;;0.93;100.00;101825.59;8228037;28;20480;-56
2023/01/25 18:19:53;;;;;;;78.78;21.23;;;;;;;0.94;100.00;101837.97;8216499;28;20118;-54
2023/01/25 18:23:59;;;;;;;89.13;22.58;;;;;;;0.98;100.00;101832.50;8245978;28;20379;-56
2023/01/25 18:28:00;;;;;;;83.22;22.60;;;;;;;1.01;100.00;101831.56;8265466;28;20069;-54
2023/01/25 18:32:00;;;;;;;83.95;23.67;;;;;;;0.89;100.00;101826.63;8252656;28;20071;-57
2023/01/25 18:36:02;;;;;;;79.65;23.65;;;;;;;1.11;100.00;101825.00;8245722;28;20366;-57
2023/01/25 18:40:04;;;;;;;92.95;24.73;;;;;;;1.22;100.00;101822.88;8251053;28;20483;-57
2023/01/25 18:44:04;;;;;;;81.25;24.88;;;;;;;1.14;100.00;101819.59;8252705;28;20065;-57
2023/01/25 18:48:05;;;;;;;80.55;22.45;;;;;;;1.19;100.00;101820.31;8255219;28;20042;-55
2023/01/25 18:52:06;;;;;;;81.65;22.55;;;;;;;1.14;100.00;101811.59;8254040;28;20042;-56
2023/01/25 18:56:13;;;;;;;93.22;28.90;;;;;;;1.07;100.00;101799.41;8254100;28;20054;-55
2023/01/25 19:00:15;;;;;;;73.60;22.90;;;;;;;1.04;100.00;101791.53;8254048;28;20037;-54
2023/01/25 19:04:16;;;;;;;76.82;23.48;;;;;;;1.10;100.00;101799.31;8253947;28;20089;-57
2023/01/25 19:08:16;;;;;;;88.63;22.58;;;;;;;0.93;100.00;101786.56;8253380;28;20034;-56